Averill, Minnesota
Current Conditions -  °F | °C
As of 4:54 AM on Wednesday 22 Oct 2014 (Local Time) from KJKJ Reporting Station
Clear Clear  
Wind Chill: 12°   Ceiling: Unl
Heat Index: 12°   Visibility: 10mi
Dew Point:   Wind: 25mph
Humidity: 72%   Direction: 150°SSE
Pressure: 29.88"   Gusts: 33mph
Location:  46.8905°N, 96.5417°W
Report Text: KJKJ 220954Z AUTO 15022G29KT 10SM CLR 12/07 A2988 RMK AO2
Loading
Personal Weather Stations






























Interactive Weather Map
Tropical Storm Tracking
New forecast layout! Learn more

10-Day Weather Forecast

Advertisements
Track Severe Weather on mobile